sensor_id;sensor_type;location;lat;lon;timestamp;P1;durP1;ratioP1;P2;durP2;ratioP2
8001;SDS011;4046;48.774;8.732;2023-03-01T00:02:14;3.10;;;2.90;;
8001;SDS011;4046;48.774;8.732;2023-03-01T00:04:40;3.27;;;3.07;;
8001;SDS011;4046;48.774;8.732;2023-03-01T00:07:06;3.70;;;3.40;;
8001;SDS011;4046;48.774;8.732;2023-03-01T00:09:32;3.47;;;3.17;;
8001;SDS011;4046;48.774;8.732;2023-03-01T00:11:59;3.47;;;3.27;;
8001;SDS011;4046;48.774;8.732;2023-03-01T00:14:25;3.43;;;3.23;;
8001;SDS011;4046;48.774;8.732;2023-03-01T00:16:51;3.03;;;2.83;;
8001;SDS011;4046;48.774;8.732;2023-03-01T00:19:18;3.30;;;3.10;;
8001;SDS011;4046;48.774;8.732;2023-03-01T00:21:45;3.00;;;2.80;;
8001;SDS011;4046;48.774;8.732;2023-03-01T00:24:11;3.23;;;3.03;;
8001;SDS011;4046;48.774;8.732;2023-03-01T00:26:38;3.20;;;3.00;;
8001;SDS011;4046;48.774;8.732;2023-03-01T00:29:04;3.77;;;3.47;;
8001;SDS011;4046;48.774;8.732;2023-03-01T00:31:31;3.33;;;3.13;;
8001;SDS011;4046;48.774;8.732;2023-03-01T00:34:02;3.73;;;3.50;;
8001;SDS011;4046;48.774;8.732;2023-03-01T00:36:31;3.43;;;3.23;;
8001;SDS011;4046;48.774;8.732;2023-03-01T00:39:00;3.17;;;2.97;;
8001;SDS011;4046;48.774;8.732;2023-03-01T00:41:27;3.70;;;3.50;;
8001;SDS011;4046;48.774;8.732;2023-03-01T00:43:53;3.20;;;3.00;;
8001;SDS011;4046;48.774;8.732;2023-03-01T00:46:21;3.30;;;3.10;;
8001;SDS011;4046;48.774;8.732;2023-03-01T00:48:49;3.53;;;3.33;;
8001;SDS011;4046;48.774;8.732;2023-03-01T00:51:23;2.97;;;2.77;;
8001;SDS011;4046;48.774;8.732;2023-03-01T00:53:52;3.03;;;2.83;;
8001;SDS011;4046;48.774;8.732;2023-03-01T00:56:20;3.27;;;3.07;;
8001;SDS011;4046;48.774;8.732;2023-03-01T00:58:46;3.23;;;3.03;;
8001;SDS011;4046;48.774;8.732;2023-03-01T01:01:14;3.17;;;2.97;;
8001;SDS011;4046;48.774;8.732;2023-03-01T01:06:16;3.10;;;2.90;;
8001;SDS011;4046;48.774;8.732;2023-03-01T01:09:04;3.60;;;3.40;;
8001;SDS011;4046;48.774;8.732;2023-03-01T01:11:32;3.20;;;3.00;;
8001;SDS011;4046;48.774;8.732;2023-03-01T01:13:59;3.33;;;3.13;;
8001;SDS011;4046;48.774;8.732;2023-03-01T01:16:26;3.43;;;3.23;;
8001;SDS011;4046;48.774;8.732;2023-03-01T01:18:53;3.77;;;3.47;;
8001;SDS011;4046;48.774;8.732;2023-03-01T01:21:20;3.00;;;2.80;;
8001;SDS011;4046;48.774;8.732;2023-03-01T01:23:48;3.40;;;3.20;;
8001;SDS011;4046;48.774;8.732;2023-03-01T01:26:17;2.83;;;2.63;;
8001;SDS011;4046;48.774;8.732;2023-03-01T01:28:49;3.43;;;3.23;;
8001;SDS011;4046;48.774;8.732;2023-03-01T01:31:16;3.77;;;3.53;;
8001;SDS011;4046;48.774;8.732;2023-03-01T01:33:43;3.20;;;3.00;;
8001;SDS011;4046;48.774;8.732;2023-03-01T01:36:10;3.30;;;3.10;;
8001;SDS011;4046;48.774;8.732;2023-03-01T01:38:37;3.30;;;3.10;;
8001;SDS011;4046;48.774;8.732;2023-03-01T01:41:04;3.30;;;3.10;;
8001;SDS011;4046;48.774;8.732;2023-03-01T01:43:37;3.57;;;3.30;;
8001;SDS011;4046;48.774;8.732;2023-03-01T01:46:10;3.77;;;3.53;;
8001;SDS011;4046;48.774;8.732;2023-03-01T01:49:07;3.60;;;3.40;;
8001;SDS011;4046;48.774;8.732;2023-03-01T01:51:49;3.20;;;3.00;;
8001;SDS011;4046;48.774;8.732;2023-03-01T01:54:22;3.30;;;3.10;;
8001;SDS011;4046;48.774;8.732;2023-03-01T01:56:58;3.70;;;3.50;;
8001;SDS011;4046;48.774;8.732;2023-03-01T01:59:28;3.10;;;2.90;;
8001;SDS011;4046;48.774;8.732;2023-03-01T02:01:59;3.60;;;3.30;;
8001;SDS011;4046;48.774;8.732;2023-03-01T02:04:27;3.20;;;3.00;;
8001;SDS011;4046;48.774;8.732;2023-03-01T02:07:01;3.40;;;3.20;;
8001;SDS011;4046;48.774;8.732;2023-03-01T02:09:32;3.47;;;3.20;;
8001;SDS011;4046;48.774;8.732;2023-03-01T02:12:01;3.53;;;3.30;;
8001;SDS011;4046;48.774;8.732;2023-03-01T02:14:30;3.40;;;3.20;;
8001;SDS011;4046;48.774;8.732;2023-03-01T02:16:56;3.20;;;3.00;;
8001;SDS011;4046;48.774;8.732;2023-03-01T02:19:26;3.67;;;3.47;;
8001;SDS011;4046;48.774;8.732;2023-03-01T02:22:11;3.20;;;3.00;;
8001;SDS011;4046;48.774;8.732;2023-03-01T02:24:53;3.40;;;3.20;;
8001;SDS011;4046;48.774;8.732;2023-03-01T02:30:34;2.90;;;2.70;;
8001;SDS011;4046;48.774;8.732;2023-03-01T02:33:02;3.80;;;3.50;;
8001;SDS011;4046;48.774;8.732;2023-03-01T02:35:37;3.40;;;3.20;;
8001;SDS011;4046;48.774;8.732;2023-03-01T02:38:06;3.50;;;3.30;;
8001;SDS011;4046;48.774;8.732;2023-03-01T02:40:34;3.60;;;3.40;;
8001;SDS011;4046;48.774;8.732;2023-03-01T02:43:03;3.57;;;3.37;;
8001;SDS011;4046;48.774;8.732;2023-03-01T02:45:32;3.10;;;2.90;;
8001;SDS011;4046;48.774;8.732;2023-03-01T02:47:58;3.80;;;3.60;;
8001;SDS011;4046;48.774;8.732;2023-03-01T02:55:42;3.30;;;3.10;;
8001;SDS011;4046;48.774;8.732;2023-03-01T02:58:09;3.27;;;3.07;;
8001;SDS011;4046;48.774;8.732;2023-03-01T03:00:36;3.20;;;3.00;;
8001;SDS011;4046;48.774;8.732;2023-03-01T03:03:16;3.50;;;3.30;;
8001;SDS011;4046;48.774;8.732;2023-03-01T03:05:44;3.37;;;3.17;;
8001;SDS011;4046;48.774;8.732;2023-03-01T03:08:11;3.17;;;2.97;;
8001;SDS011;4046;48.774;8.732;2023-03-01T03:10:38;3.00;;;2.80;;
8001;SDS011;4046;48.774;8.732;2023-03-01T03:13:10;3.57;;;3.37;;
8001;SDS011;4046;48.774;8.732;2023-03-01T03:15:39;3.37;;;3.17;;
8001;SDS011;4046;48.774;8.732;2023-03-01T03:18:08;3.60;;;3.40;;
8001;SDS011;4046;48.774;8.732;2023-03-01T03:20:37;3.40;;;3.20;;
8001;SDS011;4046;48.774;8.732;2023-03-01T03:23:06;3.03;;;2.83;;
8001;SDS011;4046;48.774;8.732;2023-03-01T03:25:32;3.17;;;2.97;;
8001;SDS011;4046;48.774;8.732;2023-03-01T03:28:03;3.40;;;3.20;;
8001;SDS011;4046;48.774;8.732;2023-03-01T03:30:36;3.70;;;3.40;;
8001;SDS011;4046;48.774;8.732;2023-03-01T03:33:05;3.80;;;3.50;;
8001;SDS011;4046;48.774;8.732;2023-03-01T03:35:33;3.37;;;3.17;;
8001;SDS011;4046;48.774;8.732;2023-03-01T03:38:05;4.00;;;3.70;;
8001;SDS011;4046;48.774;8.732;2023-03-01T03:40:48;3.57;;;3.33;;
8001;SDS011;4046;48.774;8.732;2023-03-01T03:43:17;3.40;;;3.20;;
8001;SDS011;4046;48.774;8.732;2023-03-01T03:45:45;3.47;;;3.27;;
8001;SDS011;4046;48.774;8.732;2023-03-01T03:48:13;3.37;;;3.07;;
8001;SDS011;4046;48.774;8.732;2023-03-01T03:50:40;3.40;;;3.20;;
8001;SDS011;4046;48.774;8.732;2023-03-01T03:53:08;3.50;;;3.20;;
8001;SDS011;4046;48.774;8.732;2023-03-01T03:55:36;3.50;;;3.30;;
8001;SDS011;4046;48.774;8.732;2023-03-01T03:58:05;3.20;;;3.00;;
8001;SDS011;4046;48.774;8.732;2023-03-01T04:00:34;3.63;;;3.40;;
8001;SDS011;4046;48.774;8.732;2023-03-01T04:03:02;3.23;;;3.03;;
8001;SDS011;4046;48.774;8.732;2023-03-01T04:05:28;3.70;;;3.50;;
8001;SDS011;4046;48.774;8.732;2023-03-01T04:07:55;3.67;;;3.47;;
8001;SDS011;4046;48.774;8.732;2023-03-01T04:10:30;3.20;;;3.00;;
8001;SDS011;4046;48.774;8.732;2023-03-01T04:12:58;3.70;;;3.50;;
8001;SDS011;4046;48.774;8.732;2023-03-01T04:15:25;3.63;;;3.40;;
8001;SDS011;4046;48.774;8.732;2023-03-01T04:17:52;3.40;;;3.20;;
8001;SDS011;4046;48.774;8.732;2023-03-01T04:20:24;3.57;;;3.27;;
8001;SDS011;4046;48.774;8.732;2023-03-01T04:22:56;3.87;;;3.67;;
8001;SDS011;4046;48.774;8.732;2023-03-01T04:25:24;3.80;;;3.60;;
8001;SDS011;4046;48.774;8.732;2023-03-01T04:27:51;3.50;;;3.30;;
8001;SDS011;4046;48.774;8.732;2023-03-01T04:30:17;3.80;;;3.60;;
8001;SDS011;4046;48.774;8.732;2023-03-01T04:32:43;4.13;;;3.83;;
8001;SDS011;4046;48.774;8.732;2023-03-01T04:35:09;3.87;;;3.67;;
8001;SDS011;4046;48.774;8.732;2023-03-01T04:37:36;3.40;;;3.20;;
8001;SDS011;4046;48.774;8.732;2023-03-01T04:40:02;3.50;;;3.30;;
8001;SDS011;4046;48.774;8.732;2023-03-01T04:42:41;3.60;;;3.40;;
8001;SDS011;4046;48.774;8.732;2023-03-01T04:45:09;3.57;;;3.30;;
8001;SDS011;4046;48.774;8.732;2023-03-01T04:47:42;3.60;;;3.40;;
8001;SDS011;4046;48.774;8.732;2023-03-01T04:50:10;3.90;;;3.70;;
8001;SDS011;4046;48.774;8.732;2023-03-01T04:52:38;3.83;;;3.63;;
8001;SDS011;4046;48.774;8.732;2023-03-01T04:55:05;4.13;;;3.83;;
8001;SDS011;4046;48.774;8.732;2023-03-01T04:57:32;3.73;;;3.50;;
8001;SDS011;4046;48.774;8.732;2023-03-01T04:59:58;3.77;;;3.57;;
8001;SDS011;4046;48.774;8.732;2023-03-01T05:02:24;3.87;;;3.57;;
8001;SDS011;4046;48.774;8.732;2023-03-01T05:04:51;3.67;;;3.47;;
8001;SDS011;4046;48.774;8.732;2023-03-01T05:07:17;4.10;;;3.90;;
8001;SDS011;4046;48.774;8.732;2023-03-01T05:09:48;3.73;;;3.50;;
8001;SDS011;4046;48.774;8.732;2023-03-01T05:12:14;3.57;;;3.37;;
8001;SDS011;4046;48.774;8.732;2023-03-01T05:14:41;4.03;;;3.73;;
8001;SDS011;4046;48.774;8.732;2023-03-01T05:17:07;3.63;;;3.43;;
8001;SDS011;4046;48.774;8.732;2023-03-01T05:19:34;3.70;;;3.40;;
8001;SDS011;4046;48.774;8.732;2023-03-01T05:22:00;3.40;;;3.20;;
8001;SDS011;4046;48.774;8.732;2023-03-01T05:24:30;3.60;;;3.40;;
8001;SDS011;4046;48.774;8.732;2023-03-01T05:26:58;3.90;;;3.60;;
8001;SDS011;4046;48.774;8.732;2023-03-01T05:29:26;3.70;;;3.50;;
8001;SDS011;4046;48.774;8.732;2023-03-01T05:31:58;4.97;;;3.50;;
8001;SDS011;4046;48.774;8.732;2023-03-01T05:34:30;4.13;;;3.83;;
8001;SDS011;4046;48.774;8.732;2023-03-01T05:36:58;3.93;;;3.63;;
8001;SDS011;4046;48.774;8.732;2023-03-01T05:39:25;4.30;;;4.00;;
8001;SDS011;4046;48.774;8.732;2023-03-01T05:41:53;3.90;;;3.60;;
8001;SDS011;4046;48.774;8.732;2023-03-01T05:44:23;4.00;;;3.70;;
8001;SDS011;4046;48.774;8.732;2023-03-01T05:46:50;4.27;;;3.97;;
8001;SDS011;4046;48.774;8.732;2023-03-01T05:49:17;3.70;;;3.47;;
8001;SDS011;4046;48.774;8.732;2023-03-01T05:51:47;3.80;;;3.60;;
8001;SDS011;4046;48.774;8.732;2023-03-01T05:54:14;3.80;;;3.60;;
8001;SDS011;4046;48.774;8.732;2023-03-01T05:56:41;4.23;;;3.93;;
8001;SDS011;4046;48.774;8.732;2023-03-01T05:59:08;3.67;;;3.47;;
8001;SDS011;4046;48.774;8.732;2023-03-01T06:01:35;3.93;;;3.73;;
8001;SDS011;4046;48.774;8.732;2023-03-01T06:04:02;3.70;;;3.50;;
8001;SDS011;4046;48.774;8.732;2023-03-01T06:06:29;4.20;;;3.90;;
8001;SDS011;4046;48.774;8.732;2023-03-01T06:08:59;4.17;;;3.77;;
8001;SDS011;4046;48.774;8.732;2023-03-01T06:11:26;3.87;;;3.60;;
8001;SDS011;4046;48.774;8.732;2023-03-01T06:13:52;3.90;;;3.70;;
8001;SDS011;4046;48.774;8.732;2023-03-01T06:16:18;3.90;;;3.63;;
8001;SDS011;4046;48.774;8.732;2023-03-01T06:18:45;4.30;;;3.90;;
8001;SDS011;4046;48.774;8.732;2023-03-01T06:21:11;4.10;;;3.80;;
8001;SDS011;4046;48.774;8.732;2023-03-01T06:23:37;3.50;;;3.30;;
8001;SDS011;4046;48.774;8.732;2023-03-01T06:26:07;3.73;;;3.53;;
8001;SDS011;4046;48.774;8.732;2023-03-01T06:28:34;3.93;;;3.63;;
8001;SDS011;4046;48.774;8.732;2023-03-01T06:31:01;3.73;;;3.50;;
8001;SDS011;4046;48.774;8.732;2023-03-01T06:33:28;3.67;;;3.47;;
8001;SDS011;4046;48.774;8.732;2023-03-01T06:35:54;4.20;;;4.00;;
8001;SDS011;4046;48.774;8.732;2023-03-01T06:38:22;4.20;;;3.90;;
8001;SDS011;4046;48.774;8.732;2023-03-01T06:40:53;4.07;;;3.80;;
8001;SDS011;4046;48.774;8.732;2023-03-01T06:43:20;3.97;;;3.67;;
8001;SDS011;4046;48.774;8.732;2023-03-01T06:45:47;3.97;;;3.77;;
8001;SDS011;4046;48.774;8.732;2023-03-01T06:48:13;4.73;;;4.33;;
8001;SDS011;4046;48.774;8.732;2023-03-01T06:50:39;4.40;;;4.00;;
8001;SDS011;4046;48.774;8.732;2023-03-01T06:53:06;4.17;;;3.87;;
8001;SDS011;4046;48.774;8.732;2023-03-01T06:55:32;3.77;;;3.57;;
8001;SDS011;4046;48.774;8.732;2023-03-01T06:57:59;3.60;;;3.40;;
8001;SDS011;4046;48.774;8.732;2023-03-01T07:00:27;3.90;;;3.63;;
8001;SDS011;4046;48.774;8.732;2023-03-01T07:02:54;4.40;;;4.10;;
8001;SDS011;4046;48.774;8.732;2023-03-01T07:05:20;4.13;;;3.90;;
8001;SDS011;4046;48.774;8.732;2023-03-01T07:07:47;3.70;;;3.50;;
8001;SDS011;4046;48.774;8.732;2023-03-01T07:10:13;4.30;;;4.00;;
8001;SDS011;4046;48.774;8.732;2023-03-01T07:12:39;4.17;;;3.87;;
8001;SDS011;4046;48.774;8.732;2023-03-01T07:15:08;4.33;;;4.03;;
8001;SDS011;4046;48.774;8.732;2023-03-01T07:17:36;4.70;;;4.40;;
8001;SDS011;4046;48.774;8.732;2023-03-01T07:20:02;4.20;;;3.80;;
8001;SDS011;4046;48.774;8.732;2023-03-01T07:22:29;4.10;;;3.90;;
8001;SDS011;4046;48.774;8.732;2023-03-01T07:24:55;4.23;;;3.93;;
8001;SDS011;4046;48.774;8.732;2023-03-01T07:27:21;4.23;;;3.93;;
8001;SDS011;4046;48.774;8.732;2023-03-01T07:29:48;4.43;;;4.03;;
8001;SDS011;4046;48.774;8.732;2023-03-01T07:32:14;4.30;;;4.00;;
8001;SDS011;4046;48.774;8.732;2023-03-01T07:34:40;4.50;;;4.20;;
8001;SDS011;4046;48.774;8.732;2023-03-01T07:37:06;4.33;;;4.03;;
8001;SDS011;4046;48.774;8.732;2023-03-01T07:39:33;3.87;;;3.60;;
8001;SDS011;4046;48.774;8.732;2023-03-01T07:41:59;3.67;;;3.43;;
8001;SDS011;4046;48.774;8.732;2023-03-01T07:44:25;4.30;;;4.00;;
8001;SDS011;4046;48.774;8.732;2023-03-01T07:46:52;4.43;;;4.03;;
8001;SDS011;4046;48.774;8.732;2023-03-01T07:49:22;4.43;;;4.13;;
8001;SDS011;4046;48.774;8.732;2023-03-01T07:51:48;3.53;;;3.33;;
8001;SDS011;4046;48.774;8.732;2023-03-01T07:54:14;4.30;;;4.00;;
8001;SDS011;4046;48.774;8.732;2023-03-01T07:56:40;4.27;;;3.93;;
8001;SDS011;4046;48.774;8.732;2023-03-01T07:59:07;3.93;;;3.67;;
8001;SDS011;4046;48.774;8.732;2023-03-01T08:01:33;3.67;;;3.47;;
8001;SDS011;4046;48.774;8.732;2023-03-01T08:03:59;4.43;;;4.03;;
8001;SDS011;4046;48.774;8.732;2023-03-01T08:06:25;4.57;;;4.17;;
8001;SDS011;4046;48.774;8.732;2023-03-01T08:08:52;4.43;;;4.13;;
8001;SDS011;4046;48.774;8.732;2023-03-01T08:11:18;4.13;;;3.83;;
8001;SDS011;4046;48.774;8.732;2023-03-01T08:13:47;4.20;;;3.93;;
8001;SDS011;4046;48.774;8.732;2023-03-01T08:16:14;4.60;;;4.30;;
8001;SDS011;4046;48.774;8.732;2023-03-01T08:18:41;4.17;;;3.87;;
8001;SDS011;4046;48.774;8.732;2023-03-01T08:21:15;4.80;;;4.50;;
8001;SDS011;4046;48.774;8.732;2023-03-01T08:23:42;4.30;;;4.00;;
8001;SDS011;4046;48.774;8.732;2023-03-01T08:26:10;4.30;;;4.00;;
8001;SDS011;4046;48.774;8.732;2023-03-01T08:28:41;5.10;;;4.10;;
8001;SDS011;4046;48.774;8.732;2023-03-01T08:33:39;4.10;;;3.80;;
8001;SDS011;4046;48.774;8.732;2023-03-01T08:36:06;4.53;;;4.23;;
8001;SDS011;4046;48.774;8.732;2023-03-01T08:38:33;4.07;;;3.77;;
8001;SDS011;4046;48.774;8.732;2023-03-01T08:41:00;4.40;;;4.10;;
8001;SDS011;4046;48.774;8.732;2023-03-01T08:43:29;4.43;;;4.13;;
8001;SDS011;4046;48.774;8.732;2023-03-01T08:45:55;4.50;;;4.20;;
8001;SDS011;4046;48.774;8.732;2023-03-01T08:48:22;4.30;;;4.00;;
8001;SDS011;4046;48.774;8.732;2023-03-01T08:50:48;4.20;;;3.90;;
8001;SDS011;4046;48.774;8.732;2023-03-01T08:53:14;3.93;;;3.63;;
8001;SDS011;4046;48.774;8.732;2023-03-01T08:55:40;4.37;;;4.07;;
8001;SDS011;4046;48.774;8.732;2023-03-01T08:58:07;4.30;;;4.00;;
8001;SDS011;4046;48.774;8.732;2023-03-01T09:00:33;4.80;;;3.90;;
8001;SDS011;4046;48.774;8.732;2023-03-01T09:03:00;4.50;;;3.60;;
8001;SDS011;4046;48.774;8.732;2023-03-01T09:05:27;4.50;;;4.10;;
8001;SDS011;4046;48.774;8.732;2023-03-01T09:07:53;4.47;;;4.03;;
8001;SDS011;4046;48.774;8.732;2023-03-01T09:10:19;4.33;;;4.03;;
8001;SDS011;4046;48.774;8.732;2023-03-01T09:12:45;5.23;;;4.47;;
8001;SDS011;4046;48.774;8.732;2023-03-01T09:15:11;3.83;;;3.63;;
8001;SDS011;4046;48.774;8.732;2023-03-01T09:17:38;4.37;;;4.07;;
8001;SDS011;4046;48.774;8.732;2023-03-01T09:20:04;4.27;;;3.87;;
8001;SDS011;4046;48.774;8.732;2023-03-01T09:22:33;4.37;;;4.07;;
8001;SDS011;4046;48.774;8.732;2023-03-01T09:25:00;4.50;;;4.17;;
8001;SDS011;4046;48.774;8.732;2023-03-01T09:27:26;4.77;;;4.40;;
8001;SDS011;4046;48.774;8.732;2023-03-01T09:29:53;4.87;;;4.47;;
8001;SDS011;4046;48.774;8.732;2023-03-01T09:32:21;4.70;;;4.30;;
8001;SDS011;4046;48.774;8.732;2023-03-01T09:34:48;4.77;;;4.43;;
8001;SDS011;4046;48.774;8.732;2023-03-01T09:37:31;4.10;;;3.90;;
8001;SDS011;4046;48.774;8.732;2023-03-01T09:39:59;4.47;;;4.17;;
8001;SDS011;4046;48.774;8.732;2023-03-01T09:42:25;4.20;;;3.90;;
8001;SDS011;4046;48.774;8.732;2023-03-01T09:47:35;4.23;;;3.93;;
8001;SDS011;4046;48.774;8.732;2023-03-01T09:50:15;4.40;;;4.00;;
8001;SDS011;4046;48.774;8.732;2023-03-01T09:53:03;4.67;;;4.37;;
8001;SDS011;4046;48.774;8.732;2023-03-01T10:00:59;4.17;;;3.87;;
8001;SDS011;4046;48.774;8.732;2023-03-01T10:03:36;3.90;;;3.60;;
8001;SDS011;4046;48.774;8.732;2023-03-01T10:06:14;3.83;;;3.63;;
8001;SDS011;4046;48.774;8.732;2023-03-01T10:11:36;4.10;;;3.80;;
8001;SDS011;4046;48.774;8.732;2023-03-01T10:14:15;4.13;;;3.93;;
8001;SDS011;4046;48.774;8.732;2023-03-01T10:16:48;4.23;;;3.97;;
8001;SDS011;4046;48.774;8.732;2023-03-01T10:19:27;4.33;;;4.03;;
8001;SDS011;4046;48.774;8.732;2023-03-01T10:22:03;3.97;;;3.67;;
8001;SDS011;4046;48.774;8.732;2023-03-01T10:24:37;3.60;;;3.40;;
8001;SDS011;4046;48.774;8.732;2023-03-01T10:27:05;4.10;;;3.90;;
8001;SDS011;4046;48.774;8.732;2023-03-01T10:32:36;3.90;;;3.70;;
8001;SDS011;4046;48.774;8.732;2023-03-01T10:35:19;3.80;;;3.60;;
8001;SDS011;4046;48.774;8.732;2023-03-01T10:37:58;4.33;;;4.03;;
8001;SDS011;4046;48.774;8.732;2023-03-01T10:40:30;3.97;;;3.77;;
8001;SDS011;4046;48.774;8.732;2023-03-01T10:42:58;3.93;;;3.73;;
8001;SDS011;4046;48.774;8.732;2023-03-01T10:45:31;4.30;;;4.00;;
8001;SDS011;4046;48.774;8.732;2023-03-01T10:50:34;3.87;;;3.57;;
8001;SDS011;4046;48.774;8.732;2023-03-01T10:53:02;4.17;;;3.87;;
8001;SDS011;4046;48.774;8.732;2023-03-01T11:03:24;4.00;;;3.67;;
8001;SDS011;4046;48.774;8.732;2023-03-01T11:05:53;3.70;;;3.40;;
8001;SDS011;4046;48.774;8.732;2023-03-01T11:08:29;4.23;;;3.93;;
8001;SDS011;4046;48.774;8.732;2023-03-01T11:11:03;3.80;;;3.60;;
8001;SDS011;4046;48.774;8.732;2023-03-01T11:13:32;8.17;;;4.00;;
8001;SDS011;4046;48.774;8.732;2023-03-01T11:16:02;4.43;;;4.10;;
8001;SDS011;4046;48.774;8.732;2023-03-01T11:18:33;3.80;;;3.60;;
8001;SDS011;4046;48.774;8.732;2023-03-01T11:20:59;3.90;;;3.57;;
8001;SDS011;4046;48.774;8.732;2023-03-01T11:23:28;4.33;;;4.03;;
8001;SDS011;4046;48.774;8.732;2023-03-01T11:25:57;4.30;;;4.00;;
8001;SDS011;4046;48.774;8.732;2023-03-01T11:28:27;4.53;;;4.23;;
8001;SDS011;4046;48.774;8.732;2023-03-01T11:35:53;3.90;;;3.60;;
8001;SDS011;4046;48.774;8.732;2023-03-01T11:38:26;3.70;;;3.40;;
8001;SDS011;4046;48.774;8.732;2023-03-01T11:40:59;4.77;;;3.80;;
8001;SDS011;4046;48.774;8.732;2023-03-01T12:00:37;4.00;;;3.70;;
8001;SDS011;4046;48.774;8.732;2023-03-01T12:03:28;4.10;;;3.80;;
8001;SDS011;4046;48.774;8.732;2023-03-01T12:06:16;3.77;;;3.57;;
8001;SDS011;4046;48.774;8.732;2023-03-01T12:09:31;4.00;;;3.70;;
8001;SDS011;4046;48.774;8.732;2023-03-01T12:36:31;3.80;;;3.50;;
8001;SDS011;4046;48.774;8.732;2023-03-01T12:39:17;3.93;;;3.63;;
8001;SDS011;4046;48.774;8.732;2023-03-01T12:50:31;3.70;;;3.40;;
8001;SDS011;4046;48.774;8.732;2023-03-01T12:53:07;3.90;;;3.60;;
8001;SDS011;4046;48.774;8.732;2023-03-01T12:55:48;3.70;;;3.50;;
8001;SDS011;4046;48.774;8.732;2023-03-01T13:15:34;3.63;;;3.43;;
8001;SDS011;4046;48.774;8.732;2023-03-01T13:18:26;4.10;;;3.80;;
8001;SDS011;4046;48.774;8.732;2023-03-01T13:20:57;4.00;;;3.70;;
8001;SDS011;4046;48.774;8.732;2023-03-01T13:23:26;3.70;;;3.50;;
8001;SDS011;4046;48.774;8.732;2023-03-01T13:31:00;3.47;;;3.17;;
8001;SDS011;4046;48.774;8.732;2023-03-01T13:35:55;4.10;;;3.80;;
8001;SDS011;4046;48.774;8.732;2023-03-01T13:41:14;3.53;;;3.33;;
8001;SDS011;4046;48.774;8.732;2023-03-01T13:43:42;5.13;;;3.50;;
8001;SDS011;4046;48.774;8.732;2023-03-01T13:46:21;4.23;;;3.93;;
8001;SDS011;4046;48.774;8.732;2023-03-01T13:48:53;3.90;;;3.60;;
8001;SDS011;4046;48.774;8.732;2023-03-01T13:51:26;3.90;;;3.60;;
8001;SDS011;4046;48.774;8.732;2023-03-01T13:53:53;3.73;;;3.43;;
8001;SDS011;4046;48.774;8.732;2023-03-01T13:56:25;3.80;;;3.50;;
8001;SDS011;4046;48.774;8.732;2023-03-01T13:58:58;3.83;;;3.53;;
8001;SDS011;4046;48.774;8.732;2023-03-01T14:01:29;3.93;;;3.63;;
8001;SDS011;4046;48.774;8.732;2023-03-01T14:03:57;3.33;;;3.13;;
8001;SDS011;4046;48.774;8.732;2023-03-01T14:06:26;3.77;;;3.50;;
8001;SDS011;4046;48.774;8.732;2023-03-01T14:09:01;3.60;;;3.37;;
8001;SDS011;4046;48.774;8.732;2023-03-01T14:14:09;5.40;;;3.70;;
8001;SDS011;4046;48.774;8.732;2023-03-01T14:19:54;3.77;;;3.50;;
8001;SDS011;4046;48.774;8.732;2023-03-01T14:22:24;3.73;;;3.47;;
8001;SDS011;4046;48.774;8.732;2023-03-01T14:24:59;3.43;;;3.23;;
8001;SDS011;4046;48.774;8.732;2023-03-01T14:27:30;3.83;;;3.53;;
8001;SDS011;4046;48.774;8.732;2023-03-01T14:30:13;3.90;;;3.60;;
8001;SDS011;4046;48.774;8.732;2023-03-01T14:32:51;3.67;;;3.37;;
8001;SDS011;4046;48.774;8.732;2023-03-01T14:35:34;4.00;;;3.80;;
8001;SDS011;4046;48.774;8.732;2023-03-01T14:38:02;4.03;;;3.73;;
8001;SDS011;4046;48.774;8.732;2023-03-01T14:40:30;4.47;;;4.07;;
8001;SDS011;4046;48.774;8.732;2023-03-01T14:42:59;3.70;;;3.50;;
8001;SDS011;4046;48.774;8.732;2023-03-01T14:45:29;3.53;;;3.33;;
8001;SDS011;4046;48.774;8.732;2023-03-01T14:47:58;4.27;;;3.87;;
8001;SDS011;4046;48.774;8.732;2023-03-01T14:50:29;4.13;;;3.80;;
8001;SDS011;4046;48.774;8.732;2023-03-01T14:53:01;3.80;;;3.50;;
8001;SDS011;4046;48.774;8.732;2023-03-01T14:55:33;4.20;;;3.80;;
8001;SDS011;4046;48.774;8.732;2023-03-01T14:58:03;3.97;;;3.67;;
8001;SDS011;4046;48.774;8.732;2023-03-01T15:00:31;3.50;;;3.30;;
8001;SDS011;4046;48.774;8.732;2023-03-01T15:03:13;3.80;;;3.50;;
8001;SDS011;4046;48.774;8.732;2023-03-01T15:05:45;3.47;;;3.20;;
8001;SDS011;4046;48.774;8.732;2023-03-01T15:08:19;3.53;;;3.33;;
8001;SDS011;4046;48.774;8.732;2023-03-01T15:10:59;3.80;;;3.60;;
8001;SDS011;4046;48.774;8.732;2023-03-01T15:13:32;7.93;;;3.90;;
8001;SDS011;4046;48.774;8.732;2023-03-01T15:16:12;3.80;;;3.60;;
8001;SDS011;4046;48.774;8.732;2023-03-01T15:18:47;3.70;;;3.50;;
8001;SDS011;4046;48.774;8.732;2023-03-01T15:21:26;3.77;;;3.50;;
8001;SDS011;4046;48.774;8.732;2023-03-01T15:24:04;3.37;;;3.17;;
8001;SDS011;4046;48.774;8.732;2023-03-01T15:26:36;3.87;;;3.57;;
8001;SDS011;4046;48.774;8.732;2023-03-01T15:29:10;3.90;;;3.70;;
8001;SDS011;4046;48.774;8.732;2023-03-01T15:31:47;3.30;;;3.00;;
8001;SDS011;4046;48.774;8.732;2023-03-01T15:34:22;3.83;;;3.63;;
8001;SDS011;4046;48.774;8.732;2023-03-01T15:36:50;4.23;;;3.93;;
8001;SDS011;4046;48.774;8.732;2023-03-01T15:42:08;3.80;;;3.50;;
8001;SDS011;4046;48.774;8.732;2023-03-01T15:44:36;3.70;;;3.43;;
8001;SDS011;4046;48.774;8.732;2023-03-01T15:47:20;4.53;;;4.13;;
8001;SDS011;4046;48.774;8.732;2023-03-01T15:49:55;4.87;;;4.37;;
8001;SDS011;4046;48.774;8.732;2023-03-01T15:54:56;3.97;;;3.73;;
8001;SDS011;4046;48.774;8.732;2023-03-01T15:57:23;3.80;;;3.60;;
8001;SDS011;4046;48.774;8.732;2023-03-01T15:59:49;3.60;;;3.40;;
8001;SDS011;4046;48.774;8.732;2023-03-01T16:02:16;4.07;;;3.77;;
8001;SDS011;4046;48.774;8.732;2023-03-01T16:04:42;3.77;;;3.47;;
8001;SDS011;4046;48.774;8.732;2023-03-01T16:07:08;3.90;;;3.70;;
8001;SDS011;4046;48.774;8.732;2023-03-01T16:09:35;3.73;;;3.43;;
8001;SDS011;4046;48.774;8.732;2023-03-01T16:12:01;3.63;;;3.43;;
8001;SDS011;4046;48.774;8.732;2023-03-01T16:14:28;3.83;;;3.53;;
8001;SDS011;4046;48.774;8.732;2023-03-01T16:16:54;4.23;;;3.93;;
8001;SDS011;4046;48.774;8.732;2023-03-01T16:19:21;4.00;;;3.70;;
8001;SDS011;4046;48.774;8.732;2023-03-01T16:21:47;3.73;;;3.53;;
8001;SDS011;4046;48.774;8.732;2023-03-01T16:24:15;3.93;;;3.67;;
8001;SDS011;4046;48.774;8.732;2023-03-01T16:26:42;4.23;;;3.93;;
8001;SDS011;4046;48.774;8.732;2023-03-01T16:29:09;3.90;;;3.60;;
8001;SDS011;4046;48.774;8.732;2023-03-01T16:31:35;4.90;;;3.90;;
8001;SDS011;4046;48.774;8.732;2023-03-01T16:34:02;4.27;;;3.97;;
8001;SDS011;4046;48.774;8.732;2023-03-01T16:36:28;3.83;;;3.63;;
8001;SDS011;4046;48.774;8.732;2023-03-01T16:38:55;3.80;;;3.50;;
8001;SDS011;4046;48.774;8.732;2023-03-01T16:41:24;4.10;;;3.80;;
8001;SDS011;4046;48.774;8.732;2023-03-01T16:43:51;3.90;;;3.63;;
8001;SDS011;4046;48.774;8.732;2023-03-01T16:46:18;4.03;;;3.73;;
8001;SDS011;4046;48.774;8.732;2023-03-01T16:48:47;3.30;;;3.10;;
8001;SDS011;4046;48.774;8.732;2023-03-01T16:51:14;3.63;;;3.33;;
8001;SDS011;4046;48.774;8.732;2023-03-01T16:53:40;3.87;;;3.60;;
8001;SDS011;4046;48.774;8.732;2023-03-01T16:56:08;4.20;;;3.90;;
8001;SDS011;4046;48.774;8.732;2023-03-01T16:58:36;3.90;;;3.70;;
8001;SDS011;4046;48.774;8.732;2023-03-01T17:03:33;3.67;;;3.47;;
8001;SDS011;4046;48.774;8.732;2023-03-01T17:06:03;3.63;;;3.43;;
8001;SDS011;4046;48.774;8.732;2023-03-01T17:08:31;3.97;;;3.67;;
8001;SDS011;4046;48.774;8.732;2023-03-01T17:11:08;4.20;;;3.90;;
8001;SDS011;4046;48.774;8.732;2023-03-01T17:13:36;4.30;;;4.00;;
8001;SDS011;4046;48.774;8.732;2023-03-01T17:16:05;3.80;;;3.60;;
8001;SDS011;4046;48.774;8.732;2023-03-01T17:18:32;4.50;;;4.20;;
8001;SDS011;4046;48.774;8.732;2023-03-01T17:20:58;4.50;;;4.10;;
8001;SDS011;4046;48.774;8.732;2023-03-01T17:23:25;4.07;;;3.70;;
8001;SDS011;4046;48.774;8.732;2023-03-01T17:25:52;3.60;;;3.27;;
8001;SDS011;4046;48.774;8.732;2023-03-01T17:28:21;3.30;;;3.10;;
8001;SDS011;4046;48.774;8.732;2023-03-01T17:30:48;4.20;;;3.80;;
8001;SDS011;4046;48.774;8.732;2023-03-01T17:33:14;3.70;;;3.40;;
8001;SDS011;4046;48.774;8.732;2023-03-01T17:35:42;3.87;;;3.57;;
8001;SDS011;4046;48.774;8.732;2023-03-01T17:38:10;3.83;;;3.63;;
8001;SDS011;4046;48.774;8.732;2023-03-01T17:40:37;3.67;;;3.47;;
8001;SDS011;4046;48.774;8.732;2023-03-01T17:43:04;4.30;;;4.00;;
8001;SDS011;4046;48.774;8.732;2023-03-01T17:45:30;4.60;;;4.30;;